Главная страница
METAR-TAF:

METAR-TAF

Аэропорты :

Martinsburg, Западная Виргиния, США

широта: 39-24-07N, долгота: 077-59-04W, высота над уровнем моря: 170 м

Текущие метеонаблюдения

Эта сводка был подготовлена 53 минут назад, в 20:53 UTC
Ветер 3 Узел переменных направлений
Температура 18°C
Влажность 26%
Давление 1026 hPa
Видимость: 16.1 км
ясное небо

METAR: KMRB 192053Z AUTO VRB03KT 10SM CLR 18/M02 A3031 RMK AO2 SLP263 T01781022 56014

Время: 17:46 (21:46 UTC)

Прогноз

Эта сводка был подготовлена 4 часа и 6 минут назад, в 17:40 UTC
Прогноз действительный с 19-го 18 UTC до 20-го 18 UTC
Ветер 8 Узел от северо-северо-восточный
Видимость: 10 км
ясное небо
С 19-го 2300 UTC
Ветер 3 Узел переменных направлений
Видимость: 10 км
ясное небо
С 20-го 1400 UTC
Ветер 5 Узел от северо-северо-восточный
Видимость: 10 км
ясное небо

TAF: KMRB 191740Z 1918/2018 02008KT P6SM SKC FM192300 VRB03KT P6SM SKC FM201400 03005KT P6SM SKC

Метеонаблюдения и прогнозы для более 4000 аэропортов (сводки METAR и TAF).

Имеющиеся станции представлены на карте желтыми и красными точками.

Чтобы увидеть название станции, наведите на нее мышь.

Затем щелкните, чтобы увидеть метеонаблюдения и метеопрогнозы.

Управление картой: чтобы увеличить масштаб, щелкните зеленые кнопки с черным крестиком; чтобы уменьшить масштаб, щелкните зеленую кнопку с тире; для просмотра соседних карт щелкайте зеленые стрелки.


METAR-TAF: